createdAt,value
2023-02-14T00:01:08.337Z,4.37
2023-02-14T00:02:10.224Z,4.29
2023-02-14T00:03:14.388Z,4.35
2023-02-14T00:04:17.549Z,4.32
2023-02-14T00:05:19.291Z,4.30
2023-02-14T00:06:21.002Z,4.30
2023-02-14T00:07:22.694Z,4.30
2023-02-14T00:08:24.380Z,4.34
2023-02-14T00:09:26.101Z,4.32
2023-02-14T00:10:27.916Z,4.32
2023-02-14T00:11:30.094Z,4.36
2023-02-14T00:12:31.788Z,4.28
2023-02-14T00:13:33.476Z,4.31
2023-02-14T00:14:53.753Z,4.28
2023-02-14T00:15:56.050Z,4.16
2023-02-14T00:16:58.253Z,4.27
2023-02-14T00:17:59.989Z,4.25
2023-02-14T00:19:04.728Z,4.19
2023-02-14T00:20:07.456Z,4.24
2023-02-14T00:21:09.158Z,4.21
2023-02-14T00:22:11.050Z,4.15
2023-02-14T00:23:12.790Z,4.25
2023-02-14T00:24:17.275Z,4.24
2023-02-14T00:25:19.768Z,4.22
2023-02-14T00:26:21.518Z,4.19
2023-02-14T00:27:23.294Z,4.21
2023-02-14T00:28:24.984Z,4.23
2023-02-14T00:29:29.862Z,4.26
2023-02-14T00:30:31.707Z,4.17
2023-02-14T00:31:33.849Z,4.22
2023-02-14T00:32:39.036Z,4.18
2023-02-14T00:33:40.773Z,4.20
2023-02-14T00:34:42.642Z,4.21
2023-02-14T00:35:44.343Z,4.17
2023-02-14T00:36:47.189Z,4.22
2023-02-14T00:37:48.905Z,4.22
2023-02-14T00:38:50.611Z,4.08
2023-02-14T00:39:52.374Z,4.17
2023-02-14T00:40:54.047Z,4.26
2023-02-14T00:41:55.870Z,4.24
2023-02-14T00:42:57.557Z,4.24
2023-02-14T00:43:59.295Z,4.26
2023-02-14T00:45:01.103Z,4.29
2023-02-14T00:46:02.905Z,4.30
2023-02-14T00:47:04.706Z,4.30
2023-02-14T00:48:06.561Z,4.30
2023-02-14T00:49:08.507Z,4.33
2023-02-14T00:50:10.561Z,4.36
2023-02-14T00:51:13.580Z,4.35
2023-02-14T00:52:15.320Z,4.37
2023-02-14T00:53:17.007Z,4.31
2023-02-14T00:54:18.811Z,4.34
2023-02-14T00:55:20.536Z,4.34
2023-02-14T00:56:22.353Z,4.40
2023-02-14T00:57:24.040Z,4.41
2023-02-14T00:58:25.744Z,4.40
2023-02-14T00:59:27.464Z,4.41
2023-02-14T01:00:29.327Z,4.33
2023-02-14T01:01:31.116Z,4.44
2023-02-14T01:02:32.866Z,4.38
2023-02-14T01:03:35.351Z,4.43
2023-02-14T01:04:37.105Z,4.51
2023-02-14T01:05:38.937Z,4.53
2023-02-14T01:06:40.667Z,4.50
2023-02-14T01:07:42.357Z,4.44
2023-02-14T01:08:44.378Z,4.41
2023-02-14T01:09:46.061Z,4.43
2023-02-14T01:10:48.167Z,4.37
2023-02-14T01:11:49.925Z,4.44
2023-02-14T01:12:51.658Z,4.49
2023-02-14T01:13:56.506Z,4.51
2023-02-14T01:14:58.804Z,4.47
2023-02-14T01:16:06.661Z,4.52
2023-02-14T01:17:08.412Z,4.56
2023-02-14T01:18:10.445Z,4.56
2023-02-14T01:19:12.165Z,4.51
2023-02-14T01:20:14.813Z,4.44
2023-02-14T01:21:19.204Z,4.51
2023-02-14T01:22:21.040Z,4.47
2023-02-14T01:23:22.724Z,4.48
2023-02-14T01:24:26.416Z,4.51
2023-02-14T01:25:28.642Z,4.50
2023-02-14T01:26:30.983Z,4.48
2023-02-14T01:27:33.371Z,4.50
2023-02-14T01:28:35.783Z,4.47
2023-02-14T01:29:37.658Z,4.49
2023-02-14T01:30:39.493Z,4.51
2023-02-14T01:31:41.346Z,4.46
2023-02-14T01:32:43.450Z,4.46
2023-02-14T01:33:47.708Z,4.40
2023-02-14T01:34:49.400Z,4.37
2023-02-14T01:35:51.085Z,4.38
2023-02-14T01:36:52.820Z,4.40
2023-02-14T01:37:54.829Z,4.43
2023-02-14T01:39:00.449Z,4.37
2023-02-14T01:40:02.858Z,4.41
2023-02-14T01:41:04.681Z,4.52
2023-02-14T01:42:06.489Z,4.47
2023-02-14T01:43:15.868Z,4.47
2023-02-14T01:44:17.534Z,4.50
2023-02-14T01:45:22.203Z,4.54
2023-02-14T01:46:26.178Z,4.53
2023-02-14T01:47:31.149Z,4.55
2023-02-14T01:48:33.119Z,4.56
2023-02-14T01:49:47.603Z,4.51
2023-02-14T01:50:53.202Z,4.54
2023-02-14T01:52:03.694Z,4.46
2023-02-14T01:53:13.916Z,4.52
2023-02-14T01:54:18.078Z,4.44
2023-02-14T01:55:23.829Z,4.49
2023-02-14T01:56:32.483Z,4.43
2023-02-14T01:57:41.021Z,4.46
2023-02-14T01:58:46.526Z,4.46
2023-02-14T01:59:56.606Z,4.52
2023-02-14T02:00:59.026Z,4.54
2023-02-14T02:02:01.200Z,4.54
2023-02-14T02:03:05.383Z,4.51
2023-02-14T02:04:14.534Z,4.47
2023-02-14T02:05:17.287Z,4.40
2023-02-14T02:06:51.282Z,4.46
2023-02-14T02:07:57.533Z,4.41
2023-02-14T02:09:18.196Z,4.38
2023-02-14T02:10:19.900Z,4.38
2023-02-14T02:11:21.634Z,4.41
2023-02-14T02:12:23.466Z,4.41
2023-02-14T02:13:25.149Z,4.39
2023-02-14T02:14:26.869Z,4.24
2023-02-14T02:15:32.707Z,4.43
2023-02-14T02:16:51.281Z,4.46
2023-02-14T02:18:24.312Z,4.50
2023-02-14T02:19:44.840Z,4.46
2023-02-14T02:21:17.108Z,4.49
2023-02-14T02:22:21.446Z,4.46
2023-02-14T02:23:28.978Z,4.44
2023-02-14T02:24:55.821Z,4.45
2023-02-14T02:26:06.457Z,4.43
2023-02-14T02:27:29.180Z,4.39
2023-02-14T02:28:55.741Z,4.42
2023-02-14T02:30:25.450Z,4.37
2023-02-14T02:31:52.008Z,4.35
2023-02-14T02:33:44.966Z,4.32
2023-02-14T02:35:08.142Z,4.28
2023-02-14T02:36:23.654Z,4.37
2023-02-14T02:37:25.444Z,4.30
2023-02-14T02:38:36.352Z,4.31
2023-02-14T02:39:46.342Z,4.33
2023-02-14T02:41:13.381Z,4.31
2023-02-14T02:42:36.414Z,4.39
2023-02-14T02:43:56.949Z,4.36
2023-02-14T02:45:20.774Z,4.44
2023-02-14T02:46:48.102Z,4.46
2023-02-14T02:48:18.774Z,4.48
2023-02-14T02:50:01.196Z,4.48
2023-02-14T02:51:25.762Z,4.51
2023-02-14T02:52:50.415Z,4.42
2023-02-14T02:54:00.184Z,4.39
2023-02-14T02:55:14.280Z,4.45
2023-02-14T02:56:39.625Z,4.38
2023-02-14T02:57:42.837Z,4.41
2023-02-14T02:58:58.736Z,4.43
2023-02-14T03:00:04.405Z,4.49
2023-02-14T03:01:15.026Z,4.51
2023-02-14T03:02:23.147Z,4.49
2023-02-14T03:03:45.758Z,4.46
2023-02-14T03:04:55.639Z,4.53
2023-02-14T03:05:58.198Z,4.55
2023-02-14T03:07:00.193Z,4.58
2023-02-14T03:08:02.542Z,4.53
2023-02-14T03:09:19.637Z,4.58
2023-02-14T03:10:28.103Z,4.60
2023-02-14T03:11:31.130Z,4.60
2023-02-14T03:12:37.490Z,4.63
2023-02-14T03:14:08.379Z,4.61
2023-02-14T03:15:28.148Z,4.65
2023-02-14T03:16:41.668Z,4.66
2023-02-14T03:18:18.627Z,4.65
2023-02-14T03:20:06.835Z,4.52
2023-02-14T03:21:24.244Z,4.62
2023-02-14T03:22:44.555Z,4.59
2023-02-14T03:23:57.671Z,4.63
2023-02-14T03:25:10.739Z,4.60
2023-02-14T03:26:22.249Z,4.54
2023-02-14T03:27:46.218Z,4.59
2023-02-14T03:29:02.100Z,4.60
2023-02-14T03:30:16.904Z,4.61
2023-02-14T03:31:43.298Z,4.58
2023-02-14T03:33:04.114Z,4.58
2023-02-14T03:34:21.357Z,4.61
2023-02-14T03:35:36.994Z,4.57
2023-02-14T03:36:47.560Z,4.65
2023-02-14T03:37:52.968Z,4.66
2023-02-14T03:39:20.898Z,4.69
2023-02-14T03:40:32.454Z,4.68
2023-02-14T03:41:40.948Z,4.71
2023-02-14T03:43:05.288Z,4.69
2023-02-14T03:44:11.515Z,4.69
2023-02-14T03:45:20.689Z,4.59
2023-02-14T03:46:36.153Z,4.65
2023-02-14T03:47:42.450Z,4.60
2023-02-14T03:48:45.989Z,4.63
2023-02-14T03:49:55.464Z,4.57
2023-02-14T03:50:58.903Z,4.59
2023-02-14T03:52:02.746Z,4.62
2023-02-14T03:53:07.299Z,4.58
2023-02-14T03:54:12.196Z,4.66
2023-02-14T03:55:17.351Z,4.63
2023-02-14T03:56:36.370Z,4.59
2023-02-14T03:58:16.601Z,4.60
2023-02-14T03:59:25.197Z,4.56
2023-02-14T04:00:30.059Z,4.54
2023-02-14T04:01:55.369Z,4.50
2023-02-14T04:03:05.059Z,4.46
2023-02-14T04:04:09.026Z,4.53
2023-02-14T04:05:18.660Z,4.49
2023-02-14T04:06:20.951Z,4.56
2023-02-14T04:07:24.857Z,4.48
2023-02-14T04:08:29.579Z,4.49
2023-02-14T04:09:31.297Z,4.47
2023-02-14T04:10:33.083Z,4.44
2023-02-14T04:11:35.751Z,4.44
2023-02-14T04:12:38.285Z,4.31
2023-02-14T04:13:40.330Z,4.40
2023-02-14T04:14:42.536Z,4.45
2023-02-14T04:15:44.739Z,4.42
2023-02-14T04:17:05.218Z,4.42
2023-02-14T04:18:25.772Z,4.39
2023-02-14T04:19:27.609Z,4.39
2023-02-14T04:20:29.929Z,4.41
2023-02-14T04:21:31.621Z,4.47
2023-02-14T04:22:33.307Z,4.43
2023-02-14T04:23:35.005Z,4.46
2023-02-14T04:24:36.735Z,4.41
2023-02-14T04:25:40.453Z,4.45
2023-02-14T04:26:54.209Z,4.45
2023-02-14T04:27:56.106Z,4.47
2023-02-14T04:28:57.777Z,4.38
2023-02-14T04:29:59.507Z,4.37
2023-02-14T04:31:03.797Z,4.42
2023-02-14T04:32:11.957Z,4.40
2023-02-14T04:33:13.949Z,4.39
2023-02-14T04:34:15.645Z,4.33
2023-02-14T04:35:17.428Z,4.33
2023-02-14T04:36:19.162Z,4.24
2023-02-14T04:37:20.919Z,4.31
2023-02-14T04:38:22.861Z,4.28
2023-02-14T04:39:24.747Z,4.27
2023-02-14T04:40:26.505Z,4.28
2023-02-14T04:41:28.225Z,4.27
2023-02-14T04:42:29.978Z,4.25
2023-02-14T04:43:31.784Z,4.32
2023-02-14T04:44:38.347Z,4.32
2023-02-14T04:45:40.132Z,4.33
2023-02-14T04:46:41.818Z,4.28
2023-02-14T04:47:43.571Z,4.26
2023-02-14T04:48:45.275Z,4.28
2023-02-14T04:49:46.978Z,4.34
2023-02-14T04:50:53.668Z,4.26
2023-02-14T04:51:55.519Z,4.22
2023-02-14T04:52:57.291Z,4.24
2023-02-14T04:53:58.989Z,4.24
2023-02-14T04:55:00.783Z,4.29
2023-02-14T04:56:02.536Z,4.30
2023-02-14T04:57:04.354Z,4.34
2023-02-14T04:58:06.440Z,4.38
2023-02-14T04:59:08.221Z,4.36
2023-02-14T05:00:10.414Z,4.34
2023-02-14T05:01:12.211Z,4.26
2023-02-14T05:02:14.008Z,4.29
2023-02-14T05:03:15.835Z,4.28
2023-02-14T05:04:17.622Z,4.26
2023-02-14T05:05:19.429Z,4.27
2023-02-14T05:06:21.147Z,4.24
2023-02-14T05:07:22.840Z,4.22
2023-02-14T05:08:24.556Z,4.27
2023-02-14T05:09:26.268Z,4.22
2023-02-14T05:10:29.293Z,4.26
2023-02-14T05:11:31.077Z,4.32
2023-02-14T05:12:32.800Z,4.32
2023-02-14T05:13:34.576Z,4.34
2023-02-14T05:14:36.303Z,4.36
2023-02-14T05:15:38.728Z,4.36
2023-02-14T05:16:40.627Z,4.32
2023-02-14T05:17:42.409Z,4.23
2023-02-14T05:18:44.228Z,4.14
2023-02-14T05:19:45.906Z,4.25
2023-02-14T05:20:55.133Z,4.35
2023-02-14T05:21:56.852Z,4.34
2023-02-14T05:23:03.545Z,4.31
2023-02-14T05:24:05.565Z,4.27
2023-02-14T05:25:07.361Z,4.20
2023-02-14T05:26:09.179Z,4.26
2023-02-14T05:27:12.113Z,4.29
2023-02-14T05:28:13.858Z,4.29
2023-02-14T05:29:15.594Z,4.30
2023-02-14T05:30:17.672Z,4.35
2023-02-14T05:31:19.471Z,4.37
2023-02-14T05:32:21.218Z,4.36
2023-02-14T05:33:23.402Z,4.36
2023-02-14T05:34:25.287Z,4.28
2023-02-14T05:35:27.759Z,4.28
2023-02-14T05:36:29.491Z,4.35
2023-02-14T05:37:31.224Z,4.33
2023-02-14T05:38:33.994Z,4.33
2023-02-14T05:39:35.694Z,4.38
2023-02-14T05:40:37.376Z,4.42
2023-02-14T05:42:40.325Z,4.38
2023-02-14T05:43:42.032Z,4.35
2023-02-14T05:44:43.763Z,4.41
2023-02-14T05:45:45.522Z,4.41
2023-02-14T05:46:47.214Z,4.40
2023-02-14T05:47:50.017Z,4.42
2023-02-14T05:48:51.898Z,4.40
2023-02-14T05:49:53.578Z,4.46
2023-02-14T05:50:55.304Z,4.46
2023-02-14T05:51:57.023Z,4.49
2023-02-14T05:52:58.771Z,4.48
2023-02-14T05:54:01.284Z,4.51
2023-02-14T05:55:03.527Z,4.51
2023-02-14T05:56:05.695Z,4.56
2023-02-14T05:57:07.486Z,4.53
2023-02-14T05:58:09.468Z,4.49
2023-02-14T05:59:11.268Z,4.51
2023-02-14T06:00:14.041Z,4.55
2023-02-14T06:01:15.721Z,4.48
2023-02-14T06:02:17.457Z,4.59
2023-02-14T06:03:19.236Z,4.49
2023-02-14T06:04:20.955Z,4.62
2023-02-14T06:05:22.686Z,4.68
2023-02-14T06:06:24.400Z,4.65
2023-02-14T06:07:26.197Z,4.73
2023-02-14T06:08:28.025Z,4.76
2023-02-14T06:09:29.712Z,4.64
2023-02-14T06:10:31.633Z,4.73
2023-02-14T06:11:33.381Z,4.70
2023-02-14T06:12:35.099Z,4.61
2023-02-14T06:13:36.768Z,4.74
2023-02-14T06:14:38.452Z,4.84
2023-02-14T06:15:40.167Z,4.83
2023-02-14T06:16:41.967Z,4.81
2023-02-14T06:17:43.864Z,4.83
2023-02-14T06:18:45.547Z,4.89
2023-02-14T06:19:47.311Z,4.85
2023-02-14T06:20:49.137Z,4.93
2023-02-14T06:21:50.834Z,4.96
2023-02-14T06:22:52.935Z,4.94
2023-02-14T06:23:54.689Z,4.99
2023-02-14T06:24:56.407Z,5.04
2023-02-14T06:25:58.140Z,5.02
2023-02-14T06:27:00.361Z,5.05
2023-02-14T06:28:02.187Z,5.08
2023-02-14T06:29:04.580Z,5.08
2023-02-14T06:30:07.769Z,5.05
2023-02-14T06:31:15.851Z,5.09
2023-02-14T06:32:17.719Z,5.11
2023-02-14T06:33:19.660Z,5.13
2023-02-14T06:34:21.385Z,5.19
2023-02-14T06:35:23.164Z,5.14
2023-02-14T06:36:25.827Z,5.26
2023-02-14T06:37:27.528Z,5.28
2023-02-14T06:38:29.219Z,5.34
2023-02-14T06:39:30.961Z,5.43
2023-02-14T06:40:32.693Z,5.44
2023-02-14T06:41:34.489Z,5.43
2023-02-14T06:42:36.320Z,5.42
2023-02-14T06:43:38.637Z,5.44
2023-02-14T06:44:40.343Z,5.48
2023-02-14T06:45:43.894Z,5.53
2023-02-14T06:46:45.582Z,5.53
2023-02-14T06:47:47.462Z,5.49
2023-02-14T06:48:49.246Z,5.56
2023-02-14T06:49:50.926Z,5.60
2023-02-14T06:50:52.672Z,5.67
2023-02-14T06:51:54.401Z,5.68
2023-02-14T06:52:56.090Z,5.71
2023-02-14T06:53:57.818Z,5.71
2023-02-14T06:54:59.547Z,5.75
2023-02-14T06:56:01.378Z,5.75
2023-02-14T06:57:03.517Z,5.84
2023-02-14T06:58:05.198Z,5.87
2023-02-14T06:59:06.987Z,5.93
2023-02-14T07:00:10.287Z,5.97
2023-02-14T07:01:12.048Z,5.97
2023-02-14T07:02:13.842Z,6.05
2023-02-14T07:03:16.259Z,6.06
2023-02-14T07:04:18.746Z,6.05
2023-02-14T07:05:20.722Z,6.07
2023-02-14T07:06:22.494Z,6.21
2023-02-14T07:07:24.206Z,6.31
2023-02-14T07:08:26.765Z,6.41
2023-02-14T07:09:28.696Z,6.55
2023-02-14T07:10:30.454Z,6.62
2023-02-14T07:11:32.315Z,6.75
2023-02-14T07:12:34.956Z,6.97
2023-02-14T07:13:36.746Z,7.17
2023-02-14T07:14:38.448Z,7.36
2023-02-14T07:15:40.264Z,7.54
2023-02-14T07:16:42.063Z,7.62
2023-02-14T07:17:44.253Z,7.71
2023-02-14T07:18:46.138Z,7.86
2023-02-14T07:19:47.811Z,7.92
2023-02-14T07:20:50.554Z,8.09
2023-02-14T07:21:52.266Z,8.24
2023-02-14T07:22:55.180Z,8.39
2023-02-14T07:23:56.905Z,8.39
2023-02-14T07:24:58.742Z,8.46
2023-02-14T07:26:00.463Z,8.65
2023-02-14T07:27:02.211Z,8.80
2023-02-14T07:28:04.912Z,8.90
2023-02-14T07:29:06.675Z,9.11
2023-02-14T07:30:09.813Z,9.13
2023-02-14T07:31:12.350Z,9.13
2023-02-14T07:32:14.248Z,9.26
2023-02-14T07:33:15.949Z,9.41
2023-02-14T07:34:17.649Z,9.49
2023-02-14T07:35:19.495Z,9.47
2023-02-14T07:36:21.237Z,9.45
2023-02-14T07:37:22.965Z,9.52
2023-02-14T07:38:24.956Z,9.88
2023-02-14T07:39:26.660Z,10.07
2023-02-14T07:40:29.982Z,10.08
2023-02-14T07:41:31.668Z,10.08
2023-02-14T07:42:33.393Z,10.13
2023-02-14T07:43:35.090Z,10.26
2023-02-14T07:44:39.110Z,10.32
2023-02-14T07:45:40.812Z,10.24
2023-02-14T07:46:43.599Z,10.33
2023-02-14T07:47:45.382Z,10.35
2023-02-14T07:48:48.366Z,10.62
2023-02-14T07:49:50.065Z,10.78
2023-02-14T07:50:51.806Z,10.90
2023-02-14T07:51:53.561Z,11.01
2023-02-14T07:52:56.666Z,11.21
2023-02-14T07:53:58.391Z,11.53
2023-02-14T07:55:00.128Z,11.66
2023-02-14T07:56:01.888Z,11.65
2023-02-14T07:57:03.729Z,11.71
2023-02-14T07:58:05.428Z,12.08
2023-02-14T07:59:07.188Z,12.28
2023-02-14T08:00:09.757Z,12.25
2023-02-14T08:01:11.511Z,12.30
2023-02-14T08:02:13.258Z,11.98
2023-02-14T08:03:15.858Z,12.03
2023-02-14T08:04:17.586Z,12.43
2023-02-14T08:05:19.430Z,12.77
2023-02-14T08:06:21.681Z,12.92
2023-02-14T08:07:23.374Z,12.71
2023-02-14T08:08:28.363Z,12.61
2023-02-14T08:09:30.241Z,12.34
2023-02-14T08:10:31.939Z,12.55
2023-02-14T08:11:52.713Z,12.48
2023-02-14T08:13:00.741Z,12.39
2023-02-14T08:14:02.936Z,12.31
2023-02-14T08:15:23.430Z,12.02
2023-02-14T08:16:25.171Z,12.23
2023-02-14T08:17:26.975Z,12.48
2023-02-14T08:18:28.874Z,12.54
2023-02-14T08:19:31.030Z,12.69
2023-02-14T08:20:32.782Z,12.76
2023-02-14T08:21:34.794Z,12.59
2023-02-14T08:22:36.489Z,12.59
2023-02-14T08:23:38.375Z,12.74
2023-02-14T08:24:40.156Z,12.66
2023-02-14T08:25:41.920Z,12.29
2023-02-14T08:26:43.695Z,12.26
2023-02-14T08:27:45.467Z,12.23
2023-02-14T08:28:47.177Z,12.21
2023-02-14T08:29:48.902Z,12.13
2023-02-14T08:30:51.195Z,12.31
2023-02-14T08:31:53.769Z,12.35
2023-02-14T08:32:55.895Z,12.45
2023-02-14T08:33:57.601Z,12.47
2023-02-14T08:34:59.290Z,12.46
2023-02-14T08:36:01.043Z,12.73
2023-02-14T08:37:02.736Z,12.89
2023-02-14T08:38:05.278Z,13.10
2023-02-14T08:39:07.667Z,13.06
2023-02-14T08:40:10.166Z,13.12
2023-02-14T08:41:12.507Z,13.21
2023-02-14T08:42:14.721Z,13.24
2023-02-14T08:43:16.801Z,13.16
2023-02-14T08:44:18.891Z,13.07
2023-02-14T08:45:20.808Z,13.34
2023-02-14T08:46:22.551Z,13.48
2023-02-14T08:47:24.354Z,13.73
2023-02-14T08:48:27.047Z,13.72
2023-02-14T08:49:28.813Z,13.89
2023-02-14T08:50:30.981Z,14.22
2023-02-14T08:51:32.718Z,14.13
2023-02-14T08:52:34.449Z,14.43
2023-02-14T08:53:37.036Z,14.37
2023-02-14T08:54:38.755Z,14.36
2023-02-14T08:55:40.819Z,14.41
2023-02-14T08:56:42.600Z,14.14
2023-02-14T08:57:44.389Z,13.94
2023-02-14T08:58:46.119Z,14.16
2023-02-14T08:59:48.685Z,14.38
2023-02-14T09:00:50.433Z,14.56
2023-02-14T09:01:52.252Z,14.73
2023-02-14T09:02:54.143Z,14.76
2023-02-14T09:03:56.900Z,14.72
2023-02-14T09:04:58.755Z,14.68
2023-02-14T09:06:05.418Z,14.69
2023-02-14T09:07:07.216Z,14.81
2023-02-14T09:08:08.942Z,14.69
2023-02-14T09:09:10.770Z,14.84
2023-02-14T09:10:12.632Z,14.91
2023-02-14T09:11:18.690Z,14.70
2023-02-14T09:12:20.601Z,14.76
2023-02-14T09:13:22.331Z,14.96
2023-02-14T09:14:24.547Z,15.22
2023-02-14T09:15:26.305Z,15.26
2023-02-14T09:16:28.263Z,15.14
2023-02-14T09:17:30.798Z,15.14
2023-02-14T09:18:32.776Z,14.84
2023-02-14T09:19:36.171Z,14.71
2023-02-14T09:20:37.901Z,14.77
2023-02-14T09:21:40.909Z,14.84
2023-02-14T09:22:42.751Z,14.81
2023-02-14T09:23:44.600Z,14.68
2023-02-14T09:24:46.348Z,14.72
2023-02-14T09:25:48.048Z,14.77
2023-02-14T09:26:49.818Z,14.92
2023-02-14T09:27:51.594Z,14.95
2023-02-14T09:28:53.340Z,14.91
2023-02-14T09:29:55.139Z,14.89
2023-02-14T09:30:57.671Z,14.85
2023-02-14T09:32:01.700Z,14.96
2023-02-14T09:33:05.470Z,15.25
2023-02-14T09:34:26.207Z,15.21
2023-02-14T09:35:46.863Z,14.82
2023-02-14T09:37:07.257Z,14.56
2023-02-14T09:38:11.580Z,14.77
2023-02-14T09:39:13.268Z,15.00
2023-02-14T09:40:19.314Z,15.09
2023-02-14T09:41:27.149Z,15.18
2023-02-14T09:42:48.687Z,15.22
2023-02-14T09:44:07.755Z,15.03
2023-02-14T09:45:29.099Z,15.29
2023-02-14T09:46:37.954Z,14.93
2023-02-14T09:48:08.198Z,14.97
2023-02-14T09:49:15.125Z,15.15
2023-02-14T09:50:34.807Z,15.03
2023-02-14T09:51:39.624Z,14.98
2023-02-14T09:52:41.562Z,14.98
2023-02-14T09:53:52.558Z,14.97
2023-02-14T09:54:58.715Z,15.11
2023-02-14T09:56:21.355Z,15.18
2023-02-14T09:57:54.854Z,15.36
2023-02-14T09:59:03.764Z,15.53
2023-02-14T10:00:25.582Z,15.26
2023-02-14T10:01:33.591Z,15.23
2023-02-14T10:02:41.064Z,15.18
2023-02-14T10:04:01.509Z,15.28
2023-02-14T10:05:07.056Z,15.61
2023-02-14T10:06:23.366Z,15.66
2023-02-14T10:07:46.296Z,15.40
2023-02-14T10:09:00.722Z,15.38
2023-02-14T10:10:22.558Z,15.60
2023-02-14T10:11:27.717Z,15.66
2023-02-14T10:12:38.240Z,15.81
2023-02-14T10:13:55.008Z,15.77
2023-02-14T10:15:00.909Z,15.66
2023-02-14T10:16:16.919Z,15.39
2023-02-14T10:17:31.421Z,15.47
2023-02-14T10:19:04.369Z,15.65
2023-02-14T10:20:19.560Z,14.98
2023-02-14T10:21:28.668Z,14.66
2023-02-14T10:22:45.431Z,14.58
2023-02-14T10:23:54.161Z,14.64
2023-02-14T10:25:01.321Z,14.57
2023-02-14T10:26:07.845Z,14.58
2023-02-14T10:27:44.888Z,14.77
2023-02-14T10:28:52.018Z,14.93
2023-02-14T10:29:53.749Z,15.19
2023-02-14T10:31:23.064Z,15.10
2023-02-14T10:32:38.138Z,14.91
2023-02-14T10:33:43.714Z,14.89
2023-02-14T10:34:51.259Z,14.85
2023-02-14T10:36:05.346Z,14.93
2023-02-14T10:37:38.166Z,14.91
2023-02-14T10:39:15.287Z,15.02
2023-02-14T10:40:41.344Z,15.34
2023-02-14T10:41:51.855Z,15.14
2023-02-14T10:42:59.503Z,15.09
2023-02-14T10:44:01.266Z,14.92
2023-02-14T10:45:18.426Z,15.08
2023-02-14T10:46:38.621Z,14.96
2023-02-14T10:47:43.086Z,14.60
2023-02-14T10:48:53.977Z,14.11
2023-02-14T10:50:02.823Z,14.11
2023-02-14T10:51:24.285Z,14.06
2023-02-14T10:52:59.508Z,14.25
2023-02-14T10:54:21.093Z,14.21
2023-02-14T10:55:48.097Z,14.41
2023-02-14T10:57:04.848Z,14.38
2023-02-14T10:58:09.977Z,14.44
2023-02-14T10:59:30.580Z,14.70
2023-02-14T11:00:39.337Z,14.98
2023-02-14T11:01:41.446Z,15.01
2023-02-14T11:02:46.359Z,14.97
2023-02-14T11:04:11.678Z,14.88
2023-02-14T11:05:34.433Z,14.88
2023-02-14T11:06:36.193Z,14.75
2023-02-14T11:07:37.972Z,14.65
2023-02-14T11:08:41.679Z,14.49
2023-02-14T11:09:43.488Z,14.43
2023-02-14T11:10:46.153Z,14.52
2023-02-14T11:12:00.646Z,14.51
2023-02-14T11:13:02.432Z,14.39
2023-02-14T11:14:23.101Z,14.37
2023-02-14T11:15:39.258Z,14.32
2023-02-14T11:16:41.002Z,14.40
2023-02-14T11:17:43.276Z,14.58
2023-02-14T11:18:45.043Z,14.44
2023-02-14T11:19:58.041Z,14.29
2023-02-14T11:21:17.828Z,14.25
2023-02-14T11:22:30.491Z,13.96
2023-02-14T11:23:35.217Z,13.84
2023-02-14T11:24:39.858Z,13.81
2023-02-14T11:25:41.606Z,13.97
2023-02-14T11:26:50.341Z,14.04
2023-02-14T11:28:16.164Z,14.02
2023-02-14T11:29:26.614Z,13.85
2023-02-14T11:30:39.821Z,13.87
2023-02-14T11:31:42.583Z,13.96
2023-02-14T11:32:55.158Z,13.84
2023-02-14T11:33:58.336Z,13.79
2023-02-14T11:35:17.187Z,13.68
2023-02-14T11:36:18.944Z,13.64
2023-02-14T11:37:23.327Z,13.72
2023-02-14T11:38:38.358Z,13.66
2023-02-14T11:39:40.203Z,13.49
2023-02-14T11:40:42.301Z,13.39
2023-02-14T11:41:56.255Z,13.17
2023-02-14T11:43:18.886Z,13.31
2023-02-14T11:44:27.167Z,13.23
2023-02-14T11:45:32.466Z,13.41
2023-02-14T11:46:41.370Z,13.36
2023-02-14T11:48:37.601Z,13.12
2023-02-14T11:49:39.745Z,13.12
2023-02-14T11:50:42.601Z,13.08
2023-02-14T11:51:45.576Z,12.93
2023-02-14T11:52:54.196Z,12.82
2023-02-14T11:54:01.039Z,12.77
2023-02-14T11:55:02.824Z,12.66
2023-02-14T11:56:04.816Z,12.55
2023-02-14T11:57:21.306Z,12.54
2023-02-14T11:58:31.349Z,12.59
2023-02-14T11:59:45.992Z,12.47
2023-02-14T12:00:56.560Z,12.39
2023-02-14T12:02:03.124Z,12.51
2023-02-14T12:03:06.998Z,12.43
2023-02-14T12:04:21.289Z,12.52
2023-02-14T12:05:37.094Z,12.54
2023-02-14T12:06:38.842Z,12.53
2023-02-14T12:07:46.052Z,12.62
2023-02-14T12:08:47.760Z,12.52
2023-02-14T12:10:25.087Z,12.34
2023-02-14T12:11:27.494Z,12.23
2023-02-14T12:12:29.269Z,11.98
2023-02-14T12:13:32.558Z,12.01
2023-02-14T12:14:35.789Z,12.03
2023-02-14T12:15:44.980Z,12.03
2023-02-14T12:17:00.375Z,12.01
2023-02-14T12:18:17.256Z,11.94
2023-02-14T12:19:32.277Z,11.89
2023-02-14T12:20:53.214Z,11.99
2023-02-14T12:22:02.616Z,12.04
2023-02-14T12:23:18.557Z,12.15
2023-02-14T12:25:19.049Z,12.19
2023-02-14T12:26:38.595Z,12.13
2023-02-14T12:27:50.937Z,12.13
2023-02-14T12:29:09.959Z,12.05
2023-02-14T12:30:18.290Z,11.89
2023-02-14T12:31:20.227Z,11.92
2023-02-14T12:32:31.420Z,11.99
2023-02-14T12:33:33.218Z,12.00
2023-02-14T12:34:36.349Z,11.99
2023-02-14T12:36:15.389Z,11.92
2023-02-14T12:37:27.561Z,11.82
2023-02-14T12:38:41.990Z,11.65
2023-02-14T12:39:43.663Z,11.62
2023-02-14T12:41:00.529Z,11.54
2023-02-14T12:42:13.413Z,11.41
2023-02-14T12:43:20.983Z,11.31
2023-02-14T12:44:40.980Z,11.34
2023-02-14T12:46:17.667Z,11.45
2023-02-14T12:47:21.416Z,11.24
2023-02-14T12:49:05.180Z,11.24
2023-02-14T12:50:30.311Z,11.19
2023-02-14T12:51:47.110Z,11.05
2023-02-14T12:53:26.212Z,10.88
2023-02-14T12:54:34.455Z,10.93
2023-02-14T12:55:42.427Z,10.79
2023-02-14T12:56:55.958Z,10.79
2023-02-14T12:58:18.492Z,10.74
2023-02-14T13:00:08.421Z,10.60
2023-02-14T13:01:39.238Z,10.57
2023-02-14T13:03:09.848Z,10.55
2023-02-14T13:04:30.072Z,10.39
2023-02-14T13:06:00.638Z,10.51
2023-02-14T13:07:56.289Z,10.49
2023-02-14T13:09:09.962Z,10.54
2023-02-14T13:10:19.339Z,10.60
2023-02-14T13:12:02.203Z,10.53
2023-02-14T13:13:22.992Z,10.37
2023-02-14T13:14:36.926Z,10.37
2023-02-14T13:15:58.580Z,10.48
2023-02-14T13:17:05.597Z,10.57
2023-02-14T13:18:13.183Z,10.67
2023-02-14T13:19:26.960Z,10.72
2023-02-14T13:20:37.671Z,10.60
2023-02-14T13:21:41.957Z,10.36
2023-02-14T13:22:44.378Z,10.41
2023-02-14T13:23:50.572Z,10.50
2023-02-14T13:24:57.564Z,10.38
2023-02-14T13:26:19.542Z,10.33
2023-02-14T13:27:33.602Z,10.32
2023-02-14T13:28:37.594Z,10.23
2023-02-14T13:29:47.128Z,10.28
2023-02-14T13:30:49.020Z,10.28
2023-02-14T13:31:56.855Z,10.24
2023-02-14T13:33:02.992Z,10.28
2023-02-14T13:34:20.638Z,10.14
2023-02-14T13:35:23.972Z,10.14
2023-02-14T13:36:28.636Z,9.97
2023-02-14T13:37:31.686Z,9.96
2023-02-14T13:38:42.131Z,9.91
2023-02-14T13:40:09.558Z,9.74
2023-02-14T13:41:12.843Z,9.68
2023-02-14T13:42:49.997Z,9.51
2023-02-14T13:43:57.789Z,9.47
2023-02-14T13:44:59.495Z,9.29
2023-02-14T13:46:01.307Z,9.36
2023-02-14T13:47:03.087Z,9.37
2023-02-14T13:48:10.393Z,9.37
2023-02-14T13:49:27.089Z,9.33
2023-02-14T13:50:28.927Z,9.41
2023-02-14T13:51:49.104Z,9.35
2023-02-14T13:52:50.943Z,9.48
2023-02-14T13:53:52.760Z,9.43
2023-02-14T13:55:03.521Z,9.49
2023-02-14T13:56:33.426Z,9.58
2023-02-14T13:57:37.531Z,9.56
2023-02-14T13:58:55.218Z,9.54
2023-02-14T14:00:21.900Z,9.61
2023-02-14T14:01:38.011Z,9.66
2023-02-14T14:02:52.552Z,9.61
2023-02-14T14:03:57.660Z,9.51
2023-02-14T14:04:59.512Z,9.42
2023-02-14T14:06:06.892Z,9.39
2023-02-14T14:07:23.269Z,9.47
2023-02-14T14:08:25.184Z,9.45
2023-02-14T14:09:42.270Z,9.49
2023-02-14T14:10:46.154Z,9.49
2023-02-14T14:11:51.456Z,9.37
2023-02-14T14:12:53.259Z,9.28
2023-02-14T14:13:54.937Z,9.37
2023-02-14T14:15:05.835Z,9.35
2023-02-14T14:16:29.109Z,9.36
2023-02-14T14:18:09.786Z,9.25
2023-02-14T14:19:17.459Z,9.22
2023-02-14T14:20:23.237Z,9.11
2023-02-14T14:21:30.541Z,9.17
2023-02-14T14:22:32.366Z,9.13
2023-02-14T14:23:37.524Z,9.12
2023-02-14T14:24:41.738Z,9.06
2023-02-14T14:25:43.508Z,8.94
2023-02-14T14:26:47.960Z,8.88
2023-02-14T14:27:50.747Z,8.81
2023-02-14T14:28:52.530Z,8.87
2023-02-14T14:29:58.897Z,8.90
2023-02-14T14:31:01.059Z,8.86
2023-02-14T14:32:19.220Z,8.86
2023-02-14T14:33:27.725Z,8.68
2023-02-14T14:34:29.489Z,8.64
2023-02-14T14:35:31.217Z,8.54
2023-02-14T14:36:32.914Z,8.66
2023-02-14T14:37:37.335Z,8.71
2023-02-14T14:38:50.880Z,8.61
2023-02-14T14:39:58.531Z,8.62
2023-02-14T14:41:02.173Z,8.52
2023-02-14T14:42:15.608Z,8.53
2023-02-14T14:43:22.989Z,8.57
2023-02-14T14:44:25.707Z,8.43
2023-02-14T14:45:30.507Z,8.40
2023-02-14T14:46:33.089Z,8.44
2023-02-14T14:47:44.430Z,8.38
2023-02-14T14:48:49.703Z,8.32